Terminal Aerodrome Forecast
Issued by NWS

Home | Current Version | Previous Version | Text Only | Print | Product List | Glossary On
Versions: 1 2 3 4 5 6 7 8 9 10 11 12 13 14 15 16 17
000
FTUS42 KTAE 230700 AAA
TAFABY
TAF AMD
KABY 230745Z 2308/2406 00000KT 3SM BR SCT007 BKN050
      TEMPO 2308/2312 1/4SM FG BKN005
     FM231400 33005KT P6SM SCT040=

USA.gov is the U.S. government's official web portal to all federal, state and local government web resources and services.